Date,TemperatureHighF,TemperatureAvgF,TemperatureLowF,DewpointHighF,DewpointAvgF,DewpointLowF,HumidityHigh,HumidityAvg,HumidityLow,PressureMaxIn,PressureMinIn,WindSpeedMaxMPH,WindSpeedAvgMPH,GustSpeedMaxMPH,PrecipitationSumIn
2013-4-1,86,76,72,-100,-100,-100,0,0,100,30.03,29.91,12,5,20,0.00
2013-4-2,83,74,66,-100,-100,-100,0,0,100,30.04,29.96,6,4,10,0.00
2013-4-3,84,77,72,-100,-100,-100,0,0,100,30.04,29.96,6,3,12,0.00
2013-4-4,84,76,70,-100,-100,-100,0,0,100,30.02,29.87,10,5,16,1.02
2013-4-5,74,69,66,-100,-100,-100,0,0,100,29.95,29.80,9,4,18,0.76
2013-4-6,79,69,59,-100,-100,-100,0,0,100,30.06,29.90,9,6,13,0.01
2013-4-7,81,74,71,-100,-100,-100,0,0,100,30.11,30.00,8,5,14,0.00
2013-4-8,82,75,65,-100,-100,-100,0,0,100,30.10,30.02,6,3,10,0.00
2013-4-9,83,76,73,-100,-100,-100,0,0,100,30.12,30.02,8,5,15,0.00
2013-4-10,85,78,74,-100,-100,-100,0,0,100,30.07,29.97,7,5,13,0.00
2013-4-11,84,79,75,-100,-100,-100,0,0,100,29.99,29.87,7,6,16,0.00
2013-4-12,87,80,77,-100,-100,-100,0,0,100,29.92,29.84,13,6,18,0.07
2013-4-13,82,77,74,-100,-100,-100,0,0,100,29.94,29.85,8,3,15,0.28
2013-4-14,86,80,73,-100,-100,-100,0,0,100,29.93,29.86,6,3,11,0.00
2013-4-15,87,78,71,-100,-100,-100,0,0,100,30.03,29.89,12,3,18,1.34
2013-4-16,87,78,71,-100,-100,-100,0,0,100,30.09,29.99,7,3,11,0.01
2013-4-17,85,79,75,-100,-100,-100,0,0,100,30.07,29.98,8,4,11,0.00
2013-4-18,87,80,76,-100,-100,-100,0,0,100,30.03,29.95,7,4,15,0.00
2013-4-19,88,82,78,-100,-100,-100,0,0,100,30.01,29.93,8,5,12,0.00
2013-4-20,87,78,73,-100,-100,-100,0,0,100,30.04,29.91,13,4,16,1.47
2013-4-21,85,78,73,-100,-100,-100,0,0,100,30.06,29.95,9,3,14,0.00
2013-4-22,83,75,69,-100,-100,-100,0,0,100,30.01,29.89,10,2,11,0.97
2013-4-23,84,75,67,-100,-100,-100,0,0,100,30.06,29.92,11,6,17,0.01
2013-4-24,84,78,73,-100,-100,-100,0,0,100,30.10,30.00,8,4,11,0.00
2013-4-25,83,76,72,-100,-100,-100,0,0,100,30.17,30.05,6,4,11,0.00
2013-4-26,84,76,71,-100,-100,-100,0,0,100,30.18,30.09,7,4,14,0.00
2013-4-27,84,77,73,-100,-100,-100,0,0,100,30.17,30.05,7,5,14,0.00
2013-4-28,85,78,73,-100,-100,-100,0,0,100,30.09,29.96,7,6,14,0.00
2013-4-29,84,78,75,-100,-100,-100,0,0,100,30.00,29.90,7,4,10,0.00
2013-4-30,83,77,72,-100,-100,-100,0,0,100,29.97,29.89,8,3,10,0.08